Time;durP1;ratioP1;P1;durP2;ratioP2;P2;SDS_P1;SDS_P2;PMS_P1;PMS_P2;Temp;Humidity;BMP_temperature;BMP_pressure;BME280_temperature;BME280_humidity;BME280_pressure;Samples;Min_cycle;Max_cycle;Signal;HPM_P1;HPM_P2
2022/09/03 00:01:13;;;;;;;8.15;4.40;;;;;;;17.22;49.19;101006.91;5047320;28;20037;-73
2022/09/03 00:03:46;;;;;;;6.25;3.83;;;;;;;17.19;49.61;101006.19;5045475;28;20041;-73
2022/09/03 00:06:44;;;;;;;7.80;4.60;;;;;;;17.19;48.51;101012.31;5045031;28;20468;-73
2022/09/03 00:09:16;;;;;;;9.27;4.85;;;;;;;17.15;49.28;101007.28;5040602;28;20118;-73
2022/09/03 00:11:54;;;;;;;10.35;4.43;;;;;;;17.12;48.78;101002.16;5049756;28;20025;-72
2022/09/03 00:14:26;;;;;;;8.13;4.60;;;;;;;17.12;49.35;101004.78;5049613;28;20484;-73
2022/09/03 00:17:15;;;;;;;7.53;4.47;;;;;;;17.06;48.59;101003.28;5039185;28;20053;-73
2022/09/03 00:19:53;;;;;;;8.50;4.72;;;;;;;16.93;49.10;100992.50;5051484;28;20035;-73
2022/09/03 00:22:28;;;;;;;7.22;4.10;;;;;;;16.94;49.49;101002.13;5049393;28;20041;-73
2022/09/03 00:24:59;;;;;;;7.25;4.13;;;;;;;16.92;50.13;101000.47;5042801;28;20120;-73
2022/09/03 00:27:26;;;;;;;7.60;3.70;;;;;;;16.88;49.21;100998.91;5034779;28;20045;-73
2022/09/03 00:30:04;;;;;;;6.50;3.95;;;;;;;16.78;49.45;100990.59;5052536;28;20029;-73
2022/09/03 00:32:46;;;;;;;9.00;3.55;;;;;;;16.80;49.78;100999.25;5047885;28;20036;-72
2022/09/03 00:35:31;;;;;;;7.32;3.97;;;;;;;16.75;49.34;100994.22;5043106;28;20111;-73
2022/09/03 00:37:58;;;;;;;9.65;4.18;;;;;;;16.65;50.71;101005.22;5047155;28;20020;-73
2022/09/03 00:40:53;;;;;;;9.30;4.03;;;;;;;16.66;49.85;101002.50;5044199;28;20121;-73
2022/09/03 00:43:46;;;;;;;7.10;4.00;;;;;;;16.59;49.73;101006.34;5045972;28;20079;-73
2022/09/03 00:46:25;;;;;;;8.10;3.60;;;;;;;16.52;50.34;101004.94;5050656;28;20456;-73
2022/09/03 00:49:08;;;;;;;7.03;3.85;;;;;;;16.50;50.33;101004.97;5048969;28;20032;-73
2022/09/03 00:52:05;;;;;;;8.13;3.75;;;;;;;16.46;50.29;100998.16;5049916;28;20033;-73
2022/09/03 00:54:44;;;;;;;5.90;3.47;;;;;;;16.43;50.66;101002.72;5045540;28;20393;-73
2022/09/03 00:57:17;;;;;;;6.85;3.55;;;;;;;16.42;50.59;100999.22;5044948;28;20029;-73
2022/09/03 01:00:06;;;;;;;8.32;4.30;;;;;;;16.43;50.97;101003.56;5046174;28;20033;-73
2022/09/03 01:02:47;;;;;;;11.38;3.80;;;;;;;16.34;50.40;100996.06;5047048;28;20037;-73
2022/09/03 01:05:21;;;;;;;8.00;3.92;;;;;;;16.40;51.77;100998.44;5039277;28;20116;-73
2022/09/03 01:08:07;;;;;;;7.65;3.90;;;;;;;16.35;51.53;100993.41;5048503;28;20044;-73
2022/09/03 01:10:56;;;;;;;4.82;3.35;;;;;;;16.35;50.74;100998.66;5037395;28;20025;-73
2022/09/03 01:13:45;;;;;;;7.10;3.95;;;;;;;16.31;51.00;100985.69;5046770;28;20037;-73
2022/09/03 01:16:47;;;;;;;6.97;3.97;;;;;;;16.30;51.23;100989.25;5050126;28;20037;-73
2022/09/03 01:19:34;;;;;;;10.57;4.00;;;;;;;16.23;51.35;100987.81;5046143;28;20094;-73
2022/09/03 01:22:23;;;;;;;11.52;4.47;;;;;;;16.26;52.19;100988.53;5050788;28;20170;-73
2022/09/03 01:24:52;;;;;;;8.15;4.22;;;;;;;16.19;51.38;100996.78;5047495;28;20052;-73
2022/09/03 01:27:42;;;;;;;7.60;4.32;;;;;;;16.19;51.94;100996.78;5048485;28;20029;-73
2022/09/03 01:30:15;;;;;;;12.82;5.10;;;;;;;16.19;51.47;100988.88;5047934;28;20033;-72
2022/09/03 01:33:02;;;;;;;16.02;5.00;;;;;;;16.20;51.42;100996.69;5037725;28;20055;-73
2022/09/03 01:35:47;;;;;;;8.32;4.70;;;;;;;16.18;51.82;100995.06;5050373;28;20024;-73
2022/09/03 01:38:19;;;;;;;9.48;5.20;;;;;;;16.15;51.42;100993.41;5051080;28;20100;-73
2022/09/03 01:44:03;;;;;;;9.35;4.88;;;;;;;16.06;51.88;100985.94;5030196;28;20396;-73
2022/09/03 01:46:44;;;;;;;10.15;5.45;;;;;;;16.12;51.62;100988.28;5038437;28;20041;-73
2022/09/03 01:49:22;;;;;;;10.40;5.47;;;;;;;16.09;52.01;100991.06;5050362;28;20056;-73
2022/09/03 01:52:03;;;;;;;11.07;5.95;;;;;;;16.11;52.31;100992.69;5051227;28;20036;-73
2022/09/03 01:54:49;;;;;;;12.10;6.00;;;;;;;16.07;51.77;100993.75;5050854;28;20167;-73
2022/09/03 01:57:38;;;;;;;8.60;5.47;;;;;;;16.07;51.42;100995.53;5051115;28;20419;-73
2022/09/03 02:00:19;;;;;;;10.00;5.93;;;;;;;16.03;51.33;101005.34;5046762;28;20033;-72
2022/09/03 02:02:46;;;;;;;12.27;6.38;;;;;;;16.00;52.15;101004.63;5049048;28;20041;-73
2022/09/03 02:05:23;;;;;;;12.07;6.45;;;;;;;15.99;52.37;100995.00;5040278;28;20033;-73
2022/09/03 02:07:54;;;;;;;12.57;6.28;;;;;;;15.97;51.81;100992.44;5048626;28;20053;-73
2022/09/03 02:10:32;;;;;;;10.50;6.47;;;;;;;15.93;52.49;100996.16;5046757;28;20028;-73
2022/09/03 02:13:06;;;;;;;13.23;7.50;;;;;;;15.90;51.78;100989.22;5049809;28;20033;-73
2022/09/03 02:15:33;;;;;;;12.70;7.38;;;;;;;15.85;51.57;100991.19;5037464;28;20029;-73
2022/09/03 02:18:02;;;;;;;12.32;6.60;;;;;;;15.91;52.22;100979.56;5043412;28;20043;-73
2022/09/03 02:20:28;;;;;;;16.65;6.82;;;;;;;15.88;51.46;100990.22;5050426;28;20372;-73
2022/09/03 02:22:56;;;;;;;13.15;7.20;;;;;;;15.93;51.71;100985.63;5050887;28;20033;-72
2022/09/03 02:25:28;;;;;;;12.70;6.95;;;;;;;15.92;51.78;100991.78;5049642;28;20021;-73
2022/09/03 02:27:54;;;;;;;11.95;7.80;;;;;;;15.90;51.64;100989.22;5050739;28;20420;-73
2022/09/03 02:30:19;;;;;;;11.30;7.40;;;;;;;15.87;51.77;100992.00;5048968;28;20087;-73
2022/09/03 02:32:45;;;;;;;12.35;7.60;;;;;;;15.87;51.99;100989.38;5041634;28;20060;-72
2022/09/03 02:35:11;;;;;;;16.30;8.73;;;;;;;15.86;51.82;100989.44;5047283;28;20033;-72
2022/09/03 02:37:37;;;;;;;14.73;8.88;;;;;;;15.84;52.05;100993.91;5032826;28;20844;-73
2022/09/03 02:40:07;;;;;;;20.80;9.18;;;;;;;15.83;51.78;100995.69;5049752;28;20053;-73
2022/09/03 02:42:33;;;;;;;18.77;9.88;;;;;;;15.80;51.86;100984.44;5044689;28;20060;-73
2022/09/03 02:45:27;;;;;;;19.73;9.02;;;;;;;15.78;51.66;100986.28;5048835;28;20029;-73
2022/09/03 02:47:55;;;;;;;18.73;9.68;;;;;;;15.71;52.49;100980.44;5046833;28;20039;-73
2022/09/03 02:50:21;;;;;;;17.35;10.02;;;;;;;15.71;52.80;100984.84;5053125;28;20115;-72
2022/09/03 02:52:46;;;;;;;18.88;9.98;;;;;;;15.74;52.55;100984.72;5053000;28;20529;-73
2022/09/03 02:55:11;;;;;;;17.70;9.82;;;;;;;15.79;52.67;100990.59;5051585;28;20021;-73
2022/09/03 02:57:37;;;;;;;18.10;10.13;;;;;;;15.78;52.01;100979.25;5051859;28;20069;-73
2022/09/03 03:00:03;;;;;;;20.98;10.52;;;;;;;15.81;52.58;100980.88;5043974;28;20489;-73
2022/09/03 03:02:28;;;;;;;17.58;9.98;;;;;;;15.84;52.43;100980.75;5042781;28;20154;-73
2022/09/03 03:04:54;;;;;;;18.95;10.30;;;;;;;15.77;52.01;100984.56;5046002;28;20112;-72
2022/09/03 03:07:19;;;;;;;19.02;10.85;;;;;;;15.83;52.59;100992.22;5050947;28;20503;-73
2022/09/03 03:09:45;;;;;;;20.25;11.20;;;;;;;15.82;52.00;100996.56;5051756;28;20025;-72
2022/09/03 03:12:10;;;;;;;15.80;10.10;;;;;;;15.79;52.22;100993.22;5052176;28;20404;-72
2022/09/03 03:14:35;;;;;;;23.50;10.95;;;;;;;15.75;51.91;100989.03;5041525;28;20041;-73
2022/09/03 03:17:00;;;;;;;19.17;9.98;;;;;;;15.73;52.09;100983.84;5045839;28;20021;-73
2022/09/03 03:19:26;;;;;;;19.17;10.80;;;;;;;15.68;52.51;100991.91;5048433;28;20033;-73
2022/09/03 03:21:51;;;;;;;17.08;11.05;;;;;;;15.63;52.35;100988.63;5051219;28;20033;-73
2022/09/03 03:24:16;;;;;;;23.23;10.68;;;;;;;15.61;53.49;100989.59;5050216;28;20431;-73
2022/09/03 03:26:41;;;;;;;20.55;10.93;;;;;;;15.57;53.32;100983.63;5052327;28;20039;-73
2022/09/03 03:29:07;;;;;;;18.40;10.32;;;;;;;15.51;53.53;100975.97;5052386;28;20029;-73
2022/09/03 03:31:33;;;;;;;21.65;11.55;;;;;;;15.51;52.95;100983.00;5049669;28;20107;-72
2022/09/03 03:34:00;;;;;;;15.43;10.50;;;;;;;15.45;52.53;100976.22;5052192;28;20114;-73
2022/09/03 03:36:28;;;;;;;20.48;11.77;;;;;;;15.43;53.07;100978.06;5049339;28;20021;-73
2022/09/03 03:38:56;;;;;;;19.95;11.10;;;;;;;15.40;52.81;100986.94;5037262;28;20404;-73
2022/09/03 03:41:33;;;;;;;20.67;10.65;;;;;;;15.39;52.93;100987.00;5048027;28;20041;-73
2022/09/03 03:44:01;;;;;;;20.40;10.75;;;;;;;15.37;53.48;100987.06;5052414;28;20025;-72
2022/09/03 03:46:35;;;;;;;22.30;11.25;;;;;;;15.37;53.40;100987.06;5049692;28;20103;-72
2022/09/03 03:49:01;;;;;;;19.58;10.50;;;;;;;15.32;53.32;100982.91;5050250;28;20032;-73
2022/09/03 03:51:27;;;;;;;21.20;9.73;;;;;;;15.34;52.84;100981.94;5051362;28;20037;-72
2022/09/03 03:53:55;;;;;;;23.30;10.32;;;;;;;15.30;54.51;100988.22;5050857;28;20108;-72
2022/09/03 03:56:21;;;;;;;20.70;9.95;;;;;;;15.31;53.80;100994.34;5050919;28;20033;-73
2022/09/03 03:58:47;;;;;;;21.88;10.02;;;;;;;15.30;53.91;100985.59;5051296;28;20028;-73
2022/09/03 04:01:18;;;;;;;21.58;10.07;;;;;;;15.29;53.84;100990.91;5049116;28;20103;-73
2022/09/03 04:03:43;;;;;;;17.25;9.73;;;;;;;15.24;53.99;100980.59;5049906;28;20029;-72
2022/09/03 04:06:11;;;;;;;16.15;9.43;;;;;;;15.22;53.93;100983.28;5048911;28;20021;-73
2022/09/03 04:08:39;;;;;;;16.70;9.82;;;;;;;15.19;53.33;100983.41;5038868;28;20059;-73
2022/09/03 04:11:08;;;;;;;17.75;9.10;;;;;;;15.19;53.79;100980.78;5052217;28;20021;-72
2022/09/03 04:13:36;;;;;;;19.13;9.75;;;;;;;15.17;54.07;100993.13;5047380;28;20021;-72
2022/09/03 04:16:03;;;;;;;18.70;9.45;;;;;;;15.18;54.60;100973.81;5051795;28;20030;-73
2022/09/03 04:18:29;;;;;;;16.05;9.40;;;;;;;15.19;54.84;100983.41;5035161;28;20512;-72
2022/09/03 04:20:59;;;;;;;16.23;8.93;;;;;;;15.21;54.00;100978.97;5047459;28;20039;-72
2022/09/03 04:23:24;;;;;;;17.88;9.48;;;;;;;15.16;54.61;100972.16;5046013;28;20021;-73
2022/09/03 04:25:53;;;;;;;20.75;9.65;;;;;;;15.16;54.16;100983.53;5050581;28;20025;-72
2022/09/03 04:28:18;;;;;;;16.08;8.95;;;;;;;15.13;54.48;100974.91;5048680;28;20028;-72
2022/09/03 04:30:43;;;;;;;16.65;8.80;;;;;;;15.11;54.06;100982.88;5049596;28;20021;-72
2022/09/03 04:33:08;;;;;;;19.15;8.60;;;;;;;15.07;54.54;100973.38;5048680;28;20384;-72
2022/09/03 04:35:34;;;;;;;16.63;9.30;;;;;;;15.03;54.58;100977.06;5042111;28;20040;-73
2022/09/03 04:37:59;;;;;;;15.52;8.90;;;;;;;14.98;55.19;100977.25;5048186;28;20082;-72
2022/09/03 04:40:24;;;;;;;14.40;8.35;;;;;;;14.93;55.05;100978.34;5048599;28;20420;-72
2022/09/03 04:42:51;;;;;;;16.38;8.35;;;;;;;14.92;55.35;100974.88;5050046;28;20401;-72
2022/09/03 04:45:18;;;;;;;15.52;7.80;;;;;;;14.92;55.46;100987.13;5050209;28;20714;-72
2022/09/03 04:47:54;;;;;;;15.50;8.25;;;;;;;14.89;55.30;100976.75;5048434;28;20033;-72
2022/09/03 04:50:20;;;;;;;15.38;8.10;;;;;;;14.85;55.39;100977.81;5048103;28;20406;-72
2022/09/03 04:52:46;;;;;;;21.08;8.80;;;;;;;14.85;55.05;100988.28;5040248;28;20493;-72
2022/09/03 04:55:11;;;;;;;16.95;8.75;;;;;;;14.83;55.27;100984.88;5048576;28;20123;-72
2022/09/03 04:57:36;;;;;;;14.27;7.90;;;;;;;14.86;55.64;100985.59;5049396;28;20040;-73
2022/09/03 05:00:03;;;;;;;17.67;8.57;;;;;;;14.90;55.63;100983.72;5050357;28;20036;-72
2022/09/03 05:02:28;;;;;;;17.73;8.63;;;;;;;14.88;55.45;100975.91;5048369;28;20056;-72
2022/09/03 05:04:54;;;;;;;17.20;8.00;;;;;;;14.91;55.25;100988.03;5049206;28;20396;-73
2022/09/03 05:07:19;;;;;;;14.07;8.95;;;;;;;14.95;54.83;100981.78;5044183;28;20029;-73
2022/09/03 05:09:45;;;;;;;16.95;9.05;;;;;;;14.92;55.20;100981.88;5039109;28;20503;-72
2022/09/03 05:12:11;;;;;;;17.25;8.95;;;;;;;14.95;55.85;100987.88;5049689;28;20027;-72
2022/09/03 05:14:37;;;;;;;19.05;9.82;;;;;;;14.94;55.10;100982.66;5039505;28;20120;-73
2022/09/03 05:17:02;;;;;;;15.85;9.15;;;;;;;14.98;55.67;100979.03;5047826;28;20116;-73
2022/09/03 05:19:28;;;;;;;21.67;9.90;;;;;;;14.98;55.32;100979.88;5041209;28;20738;-72
2022/09/03 05:21:53;;;;;;;24.00;10.57;;;;;;;14.99;55.61;100986.81;5048026;28;20090;-72
2022/09/03 05:24:18;;;;;;;16.48;9.93;;;;;;;14.97;55.24;100988.66;5050221;28;20025;-73
2022/09/03 05:26:43;;;;;;;17.05;9.93;;;;;;;15.05;55.73;100984.88;5046920;28;20029;-73
2022/09/03 05:29:09;;;;;;;17.55;9.23;;;;;;;15.07;55.77;100988.28;5037191;28;20056;-73
2022/09/03 05:31:38;;;;;;;20.10;9.80;;;;;;;15.09;55.54;100976.81;5050980;28;20394;-72
2022/09/03 05:34:04;;;;;;;16.85;9.15;;;;;;;15.10;55.79;100977.66;5048855;28;20051;-73
2022/09/03 05:36:33;;;;;;;16.85;9.55;;;;;;;15.13;54.73;100978.41;5045480;28;20048;-72
2022/09/03 05:38:59;;;;;;;20.35;9.32;;;;;;;15.15;55.39;100979.19;5045190;28;20086;-73
2022/09/03 05:41:26;;;;;;;15.48;8.65;;;;;;;15.18;55.97;100984.31;5046308;28;20048;-72
2022/09/03 05:43:57;;;;;;;15.57;9.02;;;;;;;15.20;55.25;100979.00;5035736;28;20104;-72
2022/09/03 05:46:29;;;;;;;16.67;8.23;;;;;;;15.25;55.64;100987.56;5045494;28;20020;-72
2022/09/03 05:48:54;;;;;;;16.17;8.02;;;;;;;15.30;55.66;100987.38;5044810;28;20119;-72
2022/09/03 05:51:19;;;;;;;18.60;8.45;;;;;;;15.38;55.58;100982.66;5041477;28;20120;-72
2022/09/03 05:53:47;;;;;;;19.70;8.80;;;;;;;15.43;54.94;100988.56;5048084;28;20057;-72
2022/09/03 05:56:18;;;;;;;18.65;8.65;;;;;;;15.46;55.03;100986.66;5046601;28;20108;-72
2022/09/03 05:58:56;;;;;;;17.50;7.95;;;;;;;15.52;54.98;100988.19;5047091;28;20061;-72
2022/09/03 06:01:24;;;;;;;13.98;7.80;;;;;;;15.60;54.70;100977.38;5045925;28;20120;-72
2022/09/03 06:04:02;;;;;;;15.68;7.45;;;;;;;15.72;54.59;100986.53;5044307;28;20025;-72
2022/09/03 06:06:31;;;;;;;13.43;7.15;;;;;;;15.79;54.52;100977.47;5043752;28;20029;-72
2022/09/03 06:08:59;;;;;;;13.25;6.72;;;;;;;15.91;54.74;100974.31;5043159;28;20417;-72
2022/09/03 06:11:26;;;;;;;13.20;6.70;;;;;;;16.00;54.37;100983.59;5045217;28;20086;-72
2022/09/03 06:13:52;;;;;;;12.73;7.30;;;;;;;16.06;52.94;100978.91;5033117;28;20388;-72
2022/09/03 06:16:18;;;;;;;13.35;7.63;;;;;;;16.11;53.87;100973.44;5037939;28;20473;-72
2022/09/03 06:18:43;;;;;;;13.90;7.30;;;;;;;16.22;53.41;100986.09;5032795;28;20074;-72
2022/09/03 06:21:08;;;;;;;12.50;7.20;;;;;;;16.26;53.35;100972.75;5038472;28;20025;-72
2022/09/03 06:23:34;;;;;;;13.48;6.45;;;;;;;16.36;52.74;100984.56;5046833;28;20108;-72
2022/09/03 06:26:05;;;;;;;13.63;7.10;;;;;;;16.47;52.77;100986.69;5044574;28;20571;-72
2022/09/03 06:28:33;;;;;;;12.15;6.60;;;;;;;16.57;52.72;100993.25;5052979;28;20511;-72
2022/09/03 06:31:01;;;;;;;13.65;7.28;;;;;;;16.65;52.06;100986.81;5053255;28;20033;-72
2022/09/03 06:33:28;;;;;;;12.38;7.13;;;;;;;16.75;51.84;100990.75;5044999;28;20032;-72
2022/09/03 06:35:58;;;;;;;12.52;6.63;;;;;;;16.81;51.17;100987.81;5037526;28;20029;-72
2022/09/03 06:38:24;;;;;;;12.02;6.97;;;;;;;16.90;51.18;100990.00;5043332;28;20021;-72
2022/09/03 06:41:03;;;;;;;11.95;6.50;;;;;;;16.98;51.15;100993.13;5045103;28;20104;-72
2022/09/03 06:43:30;;;;;;;11.10;6.38;;;;;;;17.03;50.63;100993.75;5044625;28;20037;-72
2022/09/03 06:46:01;;;;;;;16.75;7.22;;;;;;;17.10;50.44;100991.69;5041327;28;20021;-72
2022/09/03 06:48:28;;;;;;;12.35;7.28;;;;;;;17.15;50.95;100997.59;5052784;28;20057;-71
2022/09/03 06:51:05;;;;;;;12.45;7.38;;;;;;;17.23;51.29;100986.66;5050053;28;20120;-72
2022/09/03 06:53:33;;;;;;;12.80;6.97;;;;;;;17.28;50.65;100993.44;5050869;28;20095;-72
2022/09/03 06:56:04;;;;;;;13.52;7.45;;;;;;;17.35;50.69;100990.50;5038526;28;20057;-72
2022/09/03 06:58:31;;;;;;;13.88;7.45;;;;;;;17.43;50.45;100991.84;5033336;28;20096;-72
2022/09/03 07:01:01;;;;;;;16.52;7.10;;;;;;;17.52;51.08;100990.50;5044123;28;20499;-72
2022/09/03 07:03:27;;;;;;;12.25;6.43;;;;;;;17.55;50.32;100983.28;5046117;28;20547;-75
2022/09/03 07:05:52;;;;;;;14.13;6.63;;;;;;;17.60;50.05;100982.22;5052371;28;20033;-76
2022/09/03 07:08:17;;;;;;;11.88;6.10;;;;;;;17.58;51.82;100987.56;5045085;28;20108;-74
2022/09/03 07:10:46;;;;;;;11.15;6.18;;;;;;;17.60;52.36;100995.41;5039052;28;20495;-76
2022/09/03 07:13:12;;;;;;;10.60;5.93;;;;;;;17.56;51.30;100994.72;5033577;28;20022;-76
2022/09/03 07:15:39;;;;;;;10.48;5.30;;;;;;;17.49;51.09;101002.06;5033655;28;20024;-76
2022/09/03 07:18:04;;;;;;;8.68;4.63;;;;;;;17.45;51.99;100994.38;5033504;28;20030;-76
2022/09/03 07:20:29;;;;;;;8.10;3.70;;;;;;;17.39;51.32;101000.78;5048553;28;20082;-76
2022/09/03 07:22:55;;;;;;;7.13;4.15;;;;;;;17.39;52.21;100994.69;5050226;28;20072;-76
2022/09/03 07:25:22;;;;;;;5.97;3.33;;;;;;;17.41;51.14;100990.19;5048665;28;20024;-76
2022/09/03 07:27:49;;;;;;;6.55;2.75;;;;;;;17.33;50.83;100990.59;5050733;28;20472;-77
2022/09/03 07:30:16;;;;;;;4.15;2.55;;;;;;;17.26;50.65;100992.63;5052238;28;20053;-76
2022/09/03 07:32:41;;;;;;;4.43;2.50;;;;;;;17.21;51.06;101001.72;5053398;28;20361;-77
2022/09/03 07:35:07;;;;;;;5.80;2.55;;;;;;;17.14;52.16;100998.53;5052603;28;20063;-77
2022/09/03 07:37:32;;;;;;;3.78;2.60;;;;;;;17.07;52.73;100997.97;5040404;28;20040;-77
2022/09/03 07:39:58;;;;;;;4.68;2.45;;;;;;;17.21;52.28;100999.94;5050141;28;20029;-77
2022/09/03 07:42:24;;;;;;;4.65;2.17;;;;;;;17.35;52.24;100999.25;5043373;28;20073;-77
2022/09/03 07:44:49;;;;;;;3.28;2.05;;;;;;;17.49;51.78;100994.16;5036544;28;20033;-77
2022/09/03 07:47:15;;;;;;;3.38;2.05;;;;;;;17.64;51.11;100996.94;5032196;28;20029;-77
2022/09/03 07:49:40;;;;;;;4.05;1.80;;;;;;;17.80;51.10;101008.47;5033020;28;20037;-77
2022/09/03 07:52:06;;;;;;;5.70;2.33;;;;;;;17.91;50.78;101002.63;5032819;28;20029;-76
2022/09/03 07:54:31;;;;;;;7.53;2.08;;;;;;;18.07;50.66;100997.41;5034891;28;20022;-77
2022/09/03 07:56:57;;;;;;;16.80;2.38;;;;;;;18.23;49.73;101003.59;5042307;28;20557;-77
2022/09/03 07:59:23;;;;;;;3.35;1.70;;;;;;;18.36;50.76;101001.16;5035129;28;20110;-78
2022/09/03 08:01:49;;;;;;;5.03;2.17;;;;;;;18.46;51.11;100999.72;5032682;28;20473;-77
2022/09/03 08:04:15;;;;;;;4.93;2.25;;;;;;;18.60;50.31;101002.47;5033023;28;20040;-77
2022/09/03 08:06:41;;;;;;;3.70;1.65;;;;;;;18.71;49.61;100997.47;5033123;28;20026;-78
2022/09/03 08:09:10;;;;;;;4.72;1.80;;;;;;;18.86;49.21;100995.78;5032064;28;20542;-78
2022/09/03 08:11:37;;;;;;;4.10;1.75;;;;;;;18.98;49.42;100999.53;5032212;28;20017;-77
2022/09/03 08:14:07;;;;;;;4.55;1.80;;;;;;;19.07;48.53;100998.19;5032482;28;20052;-77
2022/09/03 08:16:35;;;;;;;2.50;1.70;;;;;;;19.20;47.86;101001.84;5041342;28;20078;-77
2022/09/03 08:19:01;;;;;;;6.85;2.00;;;;;;;19.26;47.59;100995.31;5046759;28;20515;-77
2022/09/03 08:21:27;;;;;;;5.82;1.70;;;;;;;19.37;46.76;100990.28;5048577;28;20028;-77
2022/09/03 08:24:01;;;;;;;4.80;2.20;;;;;;;19.45;47.30;101009.19;5038117;28;20026;-77
2022/09/03 08:26:27;;;;;;;5.65;1.80;;;;;;;19.53;47.85;101003.47;5038857;28;20028;-77
2022/09/03 08:28:53;;;;;;;7.30;2.03;;;;;;;19.65;46.60;101008.06;5038982;28;20025;-78
2022/09/03 08:31:20;;;;;;;5.95;1.85;;;;;;;19.76;46.22;101010.94;5037127;28;20056;-77
2022/09/03 08:33:49;;;;;;;8.13;1.92;;;;;;;19.82;45.63;101009.72;5032095;28;20025;-78
2022/09/03 08:36:17;;;;;;;4.45;2.00;;;;;;;19.93;46.52;101020.50;5033076;28;20079;-78
2022/09/03 08:38:45;;;;;;;3.45;1.65;;;;;;;19.97;46.81;101010.59;5032314;28;20036;-77
2022/09/03 08:41:20;;;;;;;8.25;2.20;;;;;;;20.04;46.06;101012.75;5036933;28;20024;-77
2022/09/03 08:44:12;;;;;;;5.60;2.05;;;;;;;20.14;46.24;101023.66;5037855;28;20026;-76
2022/09/03 08:46:56;;;;;;;7.65;2.20;;;;;;;20.24;46.09;101021.28;5030946;28;20504;-76
2022/09/03 08:49:50;;;;;;;4.18;1.92;;;;;;;20.36;46.20;101017.91;5040640;28;20033;-77
2022/09/03 08:52:39;;;;;;;7.65;2.10;;;;;;;20.50;44.94;101019.69;5042212;28;20025;-76
2022/09/03 08:55:32;;;;;;;3.53;1.90;;;;;;;20.57;44.95;101021.06;5045340;28;20064;-76
2022/09/03 08:58:03;;;;;;;6.22;1.70;;;;;;;20.62;44.24;101008.38;5046702;28;20036;-73
2022/09/03 09:00:45;;;;;;;5.72;2.08;;;;;;;20.75;43.70;101008.44;5035237;28;20112;-73
2022/09/03 09:03:22;;;;;;;2.95;1.83;;;;;;;20.90;43.94;101007.47;5042807;28;20029;-74
2022/09/03 09:06:20;;;;;;;2.80;1.83;;;;;;;21.01;43.36;100999.66;5049149;28;20104;-73
2022/09/03 09:09:04;;;;;;;4.38;1.75;;;;;;;21.21;44.25;101016.09;5051458;28;20075;-73
2022/09/03 09:11:52;;;;;;;6.55;1.90;;;;;;;21.44;43.73;101010.16;5050901;28;20385;-73
2022/09/03 09:14:43;;;;;;;5.03;1.90;;;;;;;21.62;42.44;101018.69;5050967;28;20035;-73
2022/09/03 09:17:36;;;;;;;6.25;2.03;;;;;;;21.66;42.63;101016.69;5047355;28;20033;-73
2022/09/03 09:20:35;;;;;;;3.50;1.95;;;;;;;21.69;42.51;101017.31;5044299;28;20108;-73
2022/09/03 09:23:06;;;;;;;6.38;1.92;;;;;;;21.78;42.86;101020.28;5051388;28;20115;-74
2022/09/03 09:25:38;;;;;;;3.13;1.80;;;;;;;21.91;42.44;101014.06;5050770;28;20107;-74
2022/09/03 09:28:29;;;;;;;3.03;1.83;;;;;;;21.98;41.45;101022.47;5051127;28;20029;-71
2022/09/03 09:30:56;;;;;;;5.43;2.03;;;;;;;22.06;40.92;101014.81;5051570;28;20046;-71
2022/09/03 09:33:22;;;;;;;5.40;2.17;;;;;;;22.17;40.20;101012.31;5050328;28;20427;-71
2022/09/03 09:35:48;;;;;;;4.40;1.98;;;;;;;22.26;40.31;101009.97;5051076;28;20503;-72
2022/09/03 09:38:14;;;;;;;4.88;2.25;;;;;;;22.35;40.54;101004.00;5051284;28;20060;-71
2022/09/03 09:40:44;;;;;;;2.70;1.90;;;;;;;22.50;40.94;101005.59;5050610;28;20099;-71
2022/09/03 09:43:11;;;;;;;3.72;1.92;;;;;;;22.59;40.76;101010.22;5050534;28;20044;-72
2022/09/03 09:45:42;;;;;;;2.83;2.10;;;;;;;22.60;39.53;101011.94;5050827;28;20473;-72
2022/09/03 09:48:32;;;;;;;4.72;2.00;;;;;;;22.66;39.22;101016.81;5050248;28;20464;-72
2022/09/03 09:51:22;;;;;;;5.53;2.10;;;;;;;22.75;39.59;100998.50;5051254;28;20037;-72
2022/09/03 09:53:58;;;;;;;3.88;1.92;;;;;;;22.85;39.63;101002.19;5050757;28;20036;-72
2022/09/03 09:56:24;;;;;;;4.47;2.10;;;;;;;22.86;39.82;101006.56;5050432;28;20017;-72
2022/09/03 09:59:01;;;;;;;5.22;2.28;;;;;;;22.99;40.09;101015.38;5053896;28;20029;-72
2022/09/03 10:01:29;;;;;;;6.47;2.30;;;;;;;23.03;38.91;101019.50;5054365;28;20027;-72
2022/09/03 10:03:59;;;;;;;8.43;2.90;;;;;;;23.00;39.24;101009.09;5055029;28;20021;-72
2022/09/03 10:09:14;;;;;;;2.78;1.90;;;;;;;23.27;39.20;101006.22;5054504;28;20044;-72
2022/09/03 10:11:44;;;;;;;4.13;2.15;;;;;;;23.37;39.27;101015.19;5054784;28;20025;-72
2022/09/03 10:14:26;;;;;;;3.80;2.47;;;;;;;23.48;39.38;100994.91;5054803;28;20037;-72
2022/09/03 10:16:59;;;;;;;4.35;2.20;;;;;;;23.70;38.46;100999.50;5052896;28;20480;-72
2022/09/03 10:19:33;;;;;;;;;;;;;;;23.79;39.41;100998.81;5043762;28;20021;-72
2022/09/03 10:22:16;;;;;;;7.28;2.40;;;;;;;23.90;38.35;100995.31;5054355;28;19959;-72
2022/09/03 10:24:48;;;;;;;;;;;;;;;24.02;39.01;100994.38;5055099;28;20013;-71
2022/09/03 10:27:16;;;;;;;3.22;1.90;;;;;;;24.20;37.75;100990.28;5054701;28;19922;-72
2022/09/03 10:29:42;;;;;;;3.67;2.30;;;;;;;24.18;37.29;100988.69;5054474;28;20021;-72
2022/09/03 10:32:41;;;;;;;3.70;2.13;;;;;;;24.21;38.00;100993.78;5046575;28;20051;-72
2022/09/03 10:35:27;;;;;;;8.18;2.47;;;;;;;24.34;37.87;100994.53;5038019;28;20048;-73
2022/09/03 10:38:05;;;;;;;5.97;2.13;;;;;;;24.60;37.07;100992.47;5038010;28;20112;-74
2022/09/03 10:40:43;;;;;;;6.38;2.20;;;;;;;24.77;36.94;100993.78;5033703;28;20115;-75
2022/09/03 10:43:20;;;;;;;2.13;1.90;;;;;;;24.82;36.74;100991.59;5036930;28;20132;-76
2022/09/03 10:46:04;;;;;;;2.42;1.65;;;;;;;24.95;36.60;100986.09;5035281;28;20495;-74
2022/09/03 10:49:04;;;;;;;4.55;1.90;;;;;;;25.02;37.42;100986.47;5036827;28;20100;-75
2022/09/03 10:51:34;;;;;;;5.72;2.30;;;;;;;25.09;36.13;100987.66;5037146;28;20393;-74
2022/09/03 10:54:24;;;;;;;3.42;1.90;;;;;;;25.20;36.60;100987.63;5036580;28;20028;-74
2022/09/03 10:57:14;;;;;;;3.17;2.38;;;;;;;25.31;35.86;100990.28;5033541;28;20029;-74
2022/09/03 10:59:56;;;;;;;3.83;2.55;;;;;;;25.46;35.76;100982.78;5036939;28;20079;-74
2022/09/03 11:02:52;;;;;;;4.40;1.92;;;;;;;25.72;36.79;100985.09;5040410;28;20033;-74
2022/09/03 11:05:28;;;;;;;4.05;2.00;;;;;;;25.79;35.31;100984.41;5032843;28;20025;-74
2022/09/03 11:08:02;;;;;;;6.50;2.22;;;;;;;25.87;33.92;100991.81;5036657;28;20686;-74
2022/09/03 11:10:32;;;;;;;9.20;2.22;;;;;;;25.99;34.90;100993.41;5033059;28;20017;-74
2022/09/03 11:13:20;;;;;;;3.53;2.00;;;;;;;26.11;35.29;100983.50;5033207;28;20038;-74
2022/09/03 11:15:52;;;;;;;3.53;2.20;;;;;;;26.28;33.73;100985.56;5037713;28;20033;-74
2022/09/03 11:18:24;;;;;;;7.60;2.20;;;;;;;26.44;33.60;100984.22;5033247;28;20036;-75
2022/09/03 11:20:54;;;;;;;6.35;2.05;;;;;;;26.53;33.79;100978.09;5040636;28;20033;-75
2022/09/03 11:23:22;;;;;;;6.40;2.20;;;;;;;26.61;34.18;100981.75;5032781;28;20038;-75
2022/09/03 11:25:58;;;;;;;5.05;2.05;;;;;;;26.75;33.68;100983.22;5032928;28;20064;-75
2022/09/03 11:28:41;;;;;;;8.73;2.40;;;;;;;26.95;33.71;100977.91;5035467;28;20029;-76
2022/09/03 11:31:31;;;;;;;3.83;2.50;;;;;;;26.96;33.03;100980.44;5037581;28;20511;-76
2022/09/03 11:34:35;;;;;;;8.13;2.92;;;;;;;26.98;32.36;100973.13;5035184;28;20485;-77
2022/09/03 11:37:06;;;;;;;6.90;2.97;;;;;;;27.10;33.49;100971.13;5039087;28;20036;-77
2022/09/03 11:39:31;;;;;;;4.82;2.30;;;;;;;27.17;32.88;100966.94;5032048;28;20052;-77
2022/09/03 11:42:05;;;;;;;5.83;2.40;;;;;;;27.45;33.33;100967.09;5034448;28;20085;-76
2022/09/03 11:44:43;;;;;;;5.40;2.20;;;;;;;27.71;32.66;100970.00;5043648;28;20025;-76
2022/09/03 11:47:21;;;;;;;6.53;2.35;;;;;;;28.13;31.72;100973.16;5041850;28;20040;-78
2022/09/03 11:49:49;;;;;;;6.47;2.38;;;;;;;28.74;31.12;100963.69;5042817;28;20028;-78
2022/09/03 11:52:25;;;;;;;5.45;2.22;;;;;;;29.47;30.35;100958.22;5044656;28;20032;-77